Time;durP1;ratioP1;P1;durP2;ratioP2;P2;SDS_P1;SDS_P2;PMS_P1;PMS_P2;Temp;Humidity;BMP_temperature;BMP_pressure;BME280_temperature;BME280_humidity;BME280_pressure;Samples;Min_cycle;Max_cycle;Signal;HPM_P1;HPM_P2
2024/02/28 00:01:19;;;;;;;12.23;11.20;;;;;;;3.97;100.00;101958.63;7737058;22;20223;-69
2024/02/28 00:04:41;;;;;;;13.63;12.37;;;;;;;3.89;100.00;101952.75;7739519;22;20525;-69
2024/02/28 00:08:02;;;;;;;15.87;14.33;;;;;;;3.80;100.00;101966.47;7716791;22;20300;-70
2024/02/28 00:11:23;;;;;;;15.23;13.67;;;;;;;3.90;100.00;101959.84;7731853;22;20289;-70
2024/02/28 00:14:45;;;;;;;18.77;16.93;;;;;;;3.83;100.00;101950.38;7737641;22;20534;-69
2024/02/28 00:18:06;;;;;;;16.83;15.20;;;;;;;3.95;100.00;101952.47;7733675;22;20298;-68
2024/02/28 00:21:27;;;;;;;19.83;17.80;;;;;;;4.00;100.00;101938.00;7730032;22;20211;-69
2024/02/28 00:24:48;;;;;;;20.30;18.20;;;;;;;4.17;100.00;101941.72;7738002;22;20215;-68
2024/02/28 00:28:09;;;;;;;17.37;15.57;;;;;;;4.09;100.00;101952.72;7735986;22;20207;-68
2024/02/28 00:31:31;;;;;;;18.03;15.63;;;;;;;3.95;100.00;101948.03;7732322;22;20255;-69
2024/02/28 00:34:52;;;;;;;17.57;15.80;;;;;;;4.04;100.00;101946.75;7732213;22;20476;-68
2024/02/28 00:38:13;;;;;;;17.30;15.57;;;;;;;3.88;100.00;101929.72;7736809;22;20215;-68
2024/02/28 00:41:34;;;;;;;21.30;19.10;;;;;;;3.99;100.00;101935.41;7732782;22;20215;-69
2024/02/28 00:44:55;;;;;;;20.37;18.33;;;;;;;4.26;100.00;101942.16;7735357;22;20211;-69
2024/02/28 00:48:17;;;;;;;18.93;15.93;;;;;;;3.96;100.00;101936.41;7734353;22;20211;-69
2024/02/28 00:51:38;;;;;;;22.00;18.83;;;;;;;3.82;100.00;101936.16;7729559;22;20554;-69
2024/02/28 00:54:59;;;;;;;20.07;17.20;;;;;;;3.82;100.00;101930.81;7737517;22;20294;-68
2024/02/28 00:58:20;;;;;;;19.90;17.90;;;;;;;3.74;100.00;101932.09;7735253;22;20214;-68
2024/02/28 01:01:42;;;;;;;20.50;18.40;;;;;;;3.70;100.00;101933.16;7727912;22;20211;-68
2024/02/28 01:05:05;;;;;;;21.00;18.53;;;;;;;3.90;100.00;101934.00;7730909;22;20211;-68
2024/02/28 01:08:26;;;;;;;20.53;18.33;;;;;;;4.04;100.00;101936.97;7735905;22;20467;-69
2024/02/28 01:11:49;;;;;;;19.23;17.20;;;;;;;4.12;100.00;101925.06;7734434;22;20214;-67
2024/02/28 01:15:10;;;;;;;18.33;16.60;;;;;;;3.93;100.00;101925.00;7734229;22;20218;-67
2024/02/28 01:18:32;;;;;;;16.57;13.87;;;;;;;3.79;100.00;101940.75;7724064;22;20253;-68
2024/02/28 01:21:54;;;;;;;18.97;16.13;;;;;;;3.57;100.00;101935.47;7732141;22;20223;-68
2024/02/28 01:25:15;;;;;;;20.33;17.37;;;;;;;3.63;100.00;101929.88;7732809;22;20210;-68
2024/02/28 01:28:35;;;;;;;18.47;16.53;;;;;;;3.62;100.00;101921.97;7740482;22;20522;-69
2024/02/28 01:31:57;;;;;;;21.73;18.03;;;;;;;3.70;100.00;101922.50;7733110;22;20215;-68
2024/02/28 01:35:18;;;;;;;20.07;18.20;;;;;;;3.83;100.00;101921.03;7731664;22;20238;-69
2024/02/28 01:38:40;;;;;;;19.70;17.63;;;;;;;3.73;100.00;101906.38;7737108;22;20215;-69
2024/02/28 01:42:01;;;;;;;19.73;16.37;;;;;;;3.73;100.00;101907.25;7732485;22;20210;-67
2024/02/28 01:45:22;;;;;;;19.77;17.67;;;;;;;3.78;100.00;101910.56;7728285;22;20563;-68
2024/02/28 01:48:42;;;;;;;21.63;19.33;;;;;;;3.51;100.00;101900.22;7736132;22;20219;-67
2024/02/28 01:52:04;;;;;;;19.13;17.13;;;;;;;3.74;100.00;101903.63;7731991;22;20281;-69
2024/02/28 01:55:26;;;;;;;17.37;15.60;;;;;;;3.59;100.00;101919.44;7735890;22;20223;-68
2024/02/28 01:58:48;;;;;;;21.43;19.23;;;;;;;3.63;100.00;101910.38;7745491;22;20218;-68
2024/02/28 02:02:09;;;;;;;21.27;18.97;;;;;;;3.75;100.00;101912.50;7729148;22;20851;-69
2024/02/28 02:05:30;;;;;;;21.73;19.57;;;;;;;3.67;100.00;101909.31;7735937;22;20239;-69
2024/02/28 02:08:51;;;;;;;21.00;17.87;;;;;;;3.68;100.00;101895.91;7742066;22;20210;-68
2024/02/28 02:12:13;;;;;;;21.53;19.20;;;;;;;3.72;100.00;101896.63;7732030;22;20280;-68
2024/02/28 02:15:34;;;;;;;22.90;17.37;;;;;;;3.64;100.00;101904.09;7728838;22;20211;-68
2024/02/28 02:18:55;;;;;;;20.87;18.67;;;;;;;3.58;100.00;101921.25;7739716;22;20634;-69
2024/02/28 02:22:17;;;;;;;23.40;20.63;;;;;;;3.64;100.00;101922.75;7735219;22;20290;-69
2024/02/28 02:25:46;;;;;;;20.97;17.90;;;;;;;3.57;100.00;101929.28;7735990;22;20215;-68
2024/02/28 02:29:08;;;;;;;24.70;19.40;;;;;;;3.47;100.00;101931.47;7743695;22;20448;-68
2024/02/28 02:32:29;;;;;;;23.20;18.03;;;;;;;3.51;100.00;101922.41;7736861;22;20833;-68
2024/02/28 02:35:50;;;;;;;22.97;17.13;;;;;;;3.45;100.00;101916.47;7744715;22;20222;-68
2024/02/28 02:39:11;;;;;;;23.93;16.93;;;;;;;3.53;100.00;101925.88;7741914;22;20625;-68
2024/02/28 02:42:33;;;;;;;22.33;20.03;;;;;;;3.50;100.00;101923.38;7736188;22;20219;-68
2024/02/28 02:45:54;;;;;;;26.13;21.00;;;;;;;3.64;100.00;101930.75;7735524;22;20310;-68
2024/02/28 02:49:15;;;;;;;23.57;20.20;;;;;;;3.53;100.00;101939.22;7739590;22;20554;-68
2024/02/28 02:52:36;;;;;;;22.67;19.37;;;;;;;3.41;100.00;101937.06;7735822;22;20210;-69
2024/02/28 02:55:57;;;;;;;22.50;17.53;;;;;;;3.51;100.00;101938.41;7777818;22;20211;-69
2024/02/28 02:59:21;;;;;;;19.40;17.43;;;;;;;3.59;100.00;101932.78;7738082;22;20219;-69
2024/02/28 03:02:42;;;;;;;21.60;16.93;;;;;;;3.61;100.00;101939.75;7730475;22;20219;-69
2024/02/28 03:06:04;;;;;;;19.93;17.70;;;;;;;3.67;100.00;101954.63;7731895;22;20566;-69
2024/02/28 03:09:25;;;;;;;21.97;17.30;;;;;;;3.61;100.00;101957.56;7740434;22;20230;-69
2024/02/28 03:12:46;;;;;;;24.77;19.67;;;;;;;3.74;100.00;101951.63;7733371;22;20215;-68
2024/02/28 03:16:09;;;;;;;22.57;19.07;;;;;;;3.63;100.00;101947.69;7727783;22;20507;-68
2024/02/28 03:19:30;;;;;;;22.13;19.50;;;;;;;3.78;100.00;101952.34;7739583;22;20317;-68
2024/02/28 03:22:51;;;;;;;21.83;16.67;;;;;;;3.79;100.00;101948.75;7731177;22;20263;-68
2024/02/28 03:26:12;;;;;;;18.03;15.63;;;;;;;3.42;100.00;101952.13;7735073;22;20286;-68
2024/02/28 03:29:33;;;;;;;21.27;16.70;;;;;;;3.24;100.00;101961.75;7741742;22;20210;-68
2024/02/28 03:32:55;;;;;;;24.00;18.60;;;;;;;3.35;100.00;101953.31;7733715;22;20621;-68
2024/02/28 03:36:16;;;;;;;20.13;17.30;;;;;;;3.53;100.00;101930.34;7734760;22;20218;-68
2024/02/28 03:39:37;;;;;;;21.57;19.03;;;;;;;3.70;100.00;101927.81;7737884;22;20962;-68
2024/02/28 03:42:59;;;;;;;19.27;16.80;;;;;;;3.43;100.00;101932.56;7734104;22;20215;-68
2024/02/28 03:46:21;;;;;;;19.33;17.50;;;;;;;3.68;100.00;101933.22;7722870;22;20209;-68
2024/02/28 03:49:44;;;;;;;20.27;17.43;;;;;;;3.58;100.00;101931.03;7738028;22;20219;-68
2024/02/28 03:53:06;;;;;;;18.57;16.00;;;;;;;3.51;100.00;101921.53;7735350;22;20210;-68
2024/02/28 03:56:28;;;;;;;18.67;16.67;;;;;;;3.52;100.00;101924.16;7731196;22;20599;-69
2024/02/28 03:59:49;;;;;;;23.70;16.10;;;;;;;3.46;100.00;101921.78;7739226;22;20219;-68
2024/02/28 04:03:10;;;;;;;20.30;16.77;;;;;;;3.55;100.00;101929.34;7730339;22;20210;-69
2024/02/28 04:06:32;;;;;;;23.50;17.10;;;;;;;3.70;100.00;101931.38;7729876;22;20566;-69
2024/02/28 04:09:53;;;;;;;18.33;15.17;;;;;;;3.97;100.00;101937.28;7736599;22;20215;-69
2024/02/28 04:13:14;;;;;;;20.83;16.60;;;;;;;4.09;100.00;101933.22;7735782;22;20215;-68
2024/02/28 04:16:35;;;;;;;22.30;17.90;;;;;;;3.78;100.00;101921.22;7727964;22;20207;-67
2024/02/28 04:19:57;;;;;;;18.23;15.37;;;;;;;3.76;100.00;101915.09;7736550;22;20500;-68
2024/02/28 04:23:19;;;;;;;19.37;17.20;;;;;;;3.89;100.00;101920.75;7734274;22;20566;-68
2024/02/28 04:26:41;;;;;;;22.57;16.70;;;;;;;3.93;100.00;101925.88;7731956;22;20219;-68
2024/02/28 04:30:02;;;;;;;19.27;16.33;;;;;;;4.09;100.00;101923.38;7736289;22;20215;-68
2024/02/28 04:33:23;;;;;;;21.43;16.00;;;;;;;3.99;100.00;101916.72;7734563;22;20440;-68
2024/02/28 04:36:44;;;;;;;18.00;15.03;;;;;;;4.18;100.00;101917.63;7729632;22;20629;-68
2024/02/28 04:40:08;;;;;;;21.53;16.60;;;;;;;3.94;100.00;101935.59;7715061;22;20218;-68
2024/02/28 04:43:29;;;;;;;19.43;17.30;;;;;;;3.95;100.00;101928.47;7735144;22;20243;-68
2024/02/28 04:46:49;;;;;;;19.20;16.97;;;;;;;3.78;100.00;101936.34;7728518;22;20222;-70
2024/02/28 04:50:11;;;;;;;16.77;14.50;;;;;;;3.66;100.00;101935.09;7732159;22;20215;-69
2024/02/28 04:53:32;;;;;;;19.23;16.80;;;;;;;3.78;100.00;101933.69;7739997;22;20210;-69
2024/02/28 04:56:54;;;;;;;20.57;16.63;;;;;;;3.72;100.00;101945.50;7726430;22;20207;-68
2024/02/28 05:00:16;;;;;;;19.10;16.93;;;;;;;3.62;100.00;101941.50;7729598;22;20655;-68
2024/02/28 05:03:36;;;;;;;19.53;16.73;;;;;;;3.90;100.00;101939.34;7736678;22;20206;-68
2024/02/28 05:06:58;;;;;;;22.47;17.90;;;;;;;3.87;100.00;101947.50;7731512;22;20211;-68
2024/02/28 05:10:18;;;;;;;19.67;16.60;;;;;;;3.82;100.00;101945.94;7729552;22;20554;-68
2024/02/28 05:13:41;;;;;;;16.87;14.73;;;;;;;3.77;100.00;101940.84;7738230;22;20307;-68
2024/02/28 05:17:02;;;;;;;22.07;17.00;;;;;;;3.68;100.00;101940.34;7725971;22;20216;-68
2024/02/28 05:20:23;;;;;;;23.47;19.07;;;;;;;3.71;100.00;101951.75;7733503;22;20207;-68
2024/02/28 05:23:43;;;;;;;24.63;18.07;;;;;;;3.68;100.00;101940.34;7737946;22;20219;-69
2024/02/28 05:27:04;;;;;;;19.17;15.97;;;;;;;3.79;100.00;101941.63;7735918;22;20215;-69
2024/02/28 05:30:29;;;;;;;24.17;18.57;;;;;;;3.84;100.00;101949.41;7728789;22;20207;-69
2024/02/28 05:33:51;;;;;;;23.80;19.90;;;;;;;3.86;100.00;101950.22;7735442;22;20223;-68
2024/02/28 05:37:13;;;;;;;20.80;17.17;;;;;;;3.76;100.00;101951.56;7734089;22;20215;-68
2024/02/28 05:40:35;;;;;;;20.03;17.57;;;;;;;3.80;100.00;101950.47;7716907;22;21030;-68
2024/02/28 05:43:56;;;;;;;21.67;17.73;;;;;;;3.86;100.00;101959.09;7738481;22;20230;-67
2024/02/28 05:47:18;;;;;;;22.13;18.97;;;;;;;3.75;100.00;101956.03;7724553;22;20203;-67
2024/02/28 05:50:39;;;;;;;19.60;17.50;;;;;;;3.94;100.00;101966.78;7729032;22;20264;-67
2024/02/28 05:54:00;;;;;;;18.33;16.17;;;;;;;3.65;100.00;101967.16;7738940;22;20203;-69
2024/02/28 05:57:21;;;;;;;19.07;16.50;;;;;;;3.77;100.00;101958.63;7725146;22;20207;-68
2024/02/28 06:00:42;;;;;;;19.07;16.07;;;;;;;3.74;100.00;101962.28;7727808;22;20218;-69
2024/02/28 06:04:05;;;;;;;21.10;15.77;;;;;;;3.66;100.00;101974.22;7734105;22;20214;-69
2024/02/28 06:07:26;;;;;;;17.80;14.47;;;;;;;3.68;100.00;101969.69;7733794;22;20508;-68
2024/02/28 06:10:47;;;;;;;16.50;14.53;;;;;;;3.66;100.00;101974.22;7726376;22;20214;-69
2024/02/28 06:14:08;;;;;;;15.80;14.23;;;;;;;3.91;100.00;101975.75;7734622;22;20211;-69
2024/02/28 06:17:29;;;;;;;14.63;12.17;;;;;;;3.69;100.00;101982.09;7735029;22;20286;-69
2024/02/28 06:20:51;;;;;;;15.40;13.40;;;;;;;3.78;100.00;101971.88;7736949;22;20219;-68
2024/02/28 06:24:12;;;;;;;13.93;11.57;;;;;;;3.66;100.00;101984.88;7737625;22;20543;-68
2024/02/28 06:27:33;;;;;;;15.20;12.93;;;;;;;3.78;100.00;101984.34;7730218;22;20232;-68
2024/02/28 06:30:54;;;;;;;16.03;11.77;;;;;;;3.85;100.00;101985.84;7729515;22;20250;-68
2024/02/28 06:34:15;;;;;;;12.43;11.23;;;;;;;3.74;100.00;101993.41;7734122;22;20211;-67
2024/02/28 06:37:37;;;;;;;15.97;11.90;;;;;;;3.63;100.00;101995.69;7724306;22;20219;-68
2024/02/28 06:40:58;;;;;;;15.17;12.17;;;;;;;3.90;100.00;102002.50;7728150;22;20248;-67
2024/02/28 06:44:19;;;;;;;13.53;12.23;;;;;;;4.10;100.00;102010.50;7736115;22;20264;-67
2024/02/28 06:47:40;;;;;;;15.60;11.03;;;;;;;3.94;100.00;102018.28;7729613;22;20302;-67
2024/02/28 06:51:01;;;;;;;13.03;11.63;;;;;;;3.94;100.00;102009.44;7728815;22;20764;-68
2024/02/28 06:54:23;;;;;;;17.93;13.97;;;;;;;4.02;100.00;102009.97;7736600;22;21333;-68
2024/02/28 06:57:44;;;;;;;14.70;12.07;;;;;;;3.92;100.00;102020.16;7731517;22;20218;-68
2024/02/28 07:01:05;;;;;;;14.37;11.13;;;;;;;4.02;100.00;102024.19;7730201;22;20215;-68
2024/02/28 07:04:26;;;;;;;13.87;11.67;;;;;;;3.90;100.00;102016.69;7736090;22;20207;-68
2024/02/28 07:07:47;;;;;;;13.63;10.83;;;;;;;3.94;100.00;102017.44;7728418;22;20219;-69
2024/02/28 07:11:15;;;;;;;14.27;11.53;;;;;;;3.78;100.00;102022.56;7730968;22;20558;-68
2024/02/28 07:14:36;;;;;;;13.83;11.67;;;;;;;3.87;100.00;102019.50;7743024;22;20589;-68
2024/02/28 07:17:57;;;;;;;16.80;12.97;;;;;;;3.97;100.00;102027.97;7732532;22;20211;-69
2024/02/28 07:21:19;;;;;;;15.60;12.63;;;;;;;4.00;100.00;102033.19;7730331;22;20557;-67
2024/02/28 07:24:40;;;;;;;12.60;11.40;;;;;;;4.20;100.00;102032.31;7731533;22;20223;-67
2024/02/28 07:28:02;;;;;;;16.23;13.20;;;;;;;4.51;100.00;102030.00;7719629;22;20207;-69
2024/02/28 07:31:23;;;;;;;14.37;10.97;;;;;;;4.30;100.00;102034.50;7730144;22;20220;-70
2024/02/28 07:34:44;;;;;;;13.43;12.13;;;;;;;4.40;100.00;102022.47;7734194;22;20215;-68
2024/02/28 07:38:06;;;;;;;12.10;10.90;;;;;;;4.15;100.00;102026.31;7727322;22;20889;-69
2024/02/28 07:41:28;;;;;;;13.47;12.07;;;;;;;3.85;100.00;102032.03;7731582;22;20313;-68
2024/02/28 07:44:53;;;;;;;13.67;12.17;;;;;;;4.35;100.00;102032.50;7727770;22;20296;-68
2024/02/28 07:48:14;;;;;;;13.37;11.97;;;;;;;4.66;100.00;102038.19;7726387;22;20444;-68
2024/02/28 07:51:34;;;;;;;17.30;14.73;;;;;;;4.62;100.00;102033.94;7716265;22;20210;-66
2024/02/28 07:54:55;;;;;;;15.03;12.43;;;;;;;4.85;100.00;102046.22;7735941;22;20210;-68
2024/02/28 07:58:17;;;;;;;16.63;13.00;;;;;;;4.65;100.00;102041.78;7728252;22;20211;-69
2024/02/28 08:01:39;;;;;;;13.23;11.77;;;;;;;4.44;100.00;102048.13;7723601;22;20286;-67
2024/02/28 08:05:00;;;;;;;19.10;15.57;;;;;;;4.42;100.00;102047.28;7731989;22;20586;-69
2024/02/28 08:08:20;;;;;;;14.87;12.73;;;;;;;4.26;100.00;102053.38;7734631;22;20321;-69
2024/02/28 08:11:41;;;;;;;16.40;13.27;;;;;;;4.37;100.00;102052.00;7730233;22;20218;-69
2024/02/28 08:15:03;;;;;;;17.03;13.17;;;;;;;4.23;100.00;102050.84;7737171;22;20487;-68
2024/02/28 08:18:26;;;;;;;17.70;13.50;;;;;;;4.35;100.00;102059.19;7737038;22;20234;-67
2024/02/28 08:21:46;;;;;;;15.00;13.33;;;;;;;4.68;100.00;102057.69;7730882;22;20227;-67
2024/02/28 08:25:11;;;;;;;17.23;14.87;;;;;;;4.51;100.00;102062.91;7734223;22;20219;-67
2024/02/28 08:28:31;;;;;;;16.93;12.93;;;;;;;4.71;100.00;102062.03;7739731;22;20207;-67
2024/02/28 08:31:52;;;;;;;17.37;15.00;;;;;;;4.58;100.00;102064.38;7730368;22;20544;-66
2024/02/28 08:35:15;;;;;;;22.47;16.70;;;;;;;4.97;100.00;102058.13;7737100;22;20214;-67
2024/02/28 08:38:38;;;;;;;20.60;15.13;;;;;;;4.60;100.00;102065.19;7730729;22;20286;-69
2024/02/28 08:41:59;;;;;;;15.03;13.43;;;;;;;5.58;100.00;102057.81;7722287;22;20211;-70
2024/02/28 08:45:20;;;;;;;16.60;14.43;;;;;;;5.54;100.00;102066.06;7721699;22;20914;-69
2024/02/28 08:48:41;;;;;;;15.87;13.50;;;;;;;5.59;100.00;102067.53;7737176;22;20211;-69
2024/02/28 08:52:04;;;;;;;17.47;15.53;;;;;;;6.00;100.00;102062.84;7730447;22;20301;-69
2024/02/28 08:55:25;;;;;;;21.67;15.37;;;;;;;6.25;100.00;102065.13;7739354;22;20860;-69
2024/02/28 08:58:46;;;;;;;20.27;16.83;;;;;;;6.64;100.00;102057.66;7740790;22;20207;-69
2024/02/28 09:02:07;;;;;;;18.90;16.77;;;;;;;6.39;100.00;102060.78;7731914;22;20219;-70
2024/02/28 09:05:28;;;;;;;20.73;17.67;;;;;;;6.48;100.00;102064.81;7729751;22;20206;-69
2024/02/28 09:08:50;;;;;;;26.63;18.43;;;;;;;6.59;100.00;102064.22;7736754;22;20215;-69
2024/02/28 09:12:11;;;;;;;22.80;16.40;;;;;;;5.98;100.00;102071.91;7734785;22;20719;-70
2024/02/28 09:15:33;;;;;;;20.13;16.03;;;;;;;6.10;100.00;102074.81;7734456;22;20488;-69
2024/02/28 09:18:54;;;;;;;25.87;20.10;;;;;;;6.48;100.00;102064.81;7739720;22;20219;-69
2024/02/28 09:22:17;;;;;;;25.30;18.67;;;;;;;6.64;100.00;102064.84;7759708;22;20286;-69
2024/02/28 09:25:39;;;;;;;19.90;17.77;;;;;;;6.31;100.00;102063.00;7731119;22;20308;-69
2024/02/28 09:29:00;;;;;;;22.20;17.97;;;;;;;6.31;100.00;102065.69;7736680;22;20235;-69
2024/02/28 09:32:20;;;;;;;25.30;18.73;;;;;;;6.33;100.00;102061.13;7719840;22;20286;-68
2024/02/28 09:35:42;;;;;;;21.67;18.17;;;;;;;6.63;100.00;102071.16;7730707;22;20328;-69
2024/02/28 09:39:03;;;;;;;21.77;17.93;;;;;;;6.86;100.00;102068.94;7740198;22;20490;-70
2024/02/28 09:42:25;;;;;;;20.50;17.30;;;;;;;7.57;100.00;102069.47;7717708;22;20223;-69
2024/02/28 09:45:46;;;;;;;21.03;18.40;;;;;;;7.72;100.00;102072.09;7735552;22;20215;-68
2024/02/28 09:49:08;;;;;;;18.63;16.17;;;;;;;8.48;100.00;102072.97;7737221;22;20211;-69
2024/02/28 09:52:29;;;;;;;19.30;16.27;;;;;;;7.86;100.00;102060.59;7736658;22;20210;-69
2024/02/28 09:55:51;;;;;;;18.83;16.80;;;;;;;7.68;100.00;102056.25;7739646;22;20211;-69
2024/02/28 09:59:14;;;;;;;18.50;15.87;;;;;;;9.41;100.00;102053.53;7741916;22;20211;-68
2024/02/28 10:02:35;;;;;;;19.43;16.27;;;;;;;10.18;100.00;102061.81;7736739;22;20207;-70
2024/02/28 10:05:56;;;;;;;18.50;14.17;;;;;;;9.97;100.00;102060.53;7733083;22;20207;-70
2024/02/28 10:09:17;;;;;;;14.97;13.27;;;;;;;10.56;100.00;102051.09;7742266;22;20202;-69
2024/02/28 10:12:42;;;;;;;19.03;14.97;;;;;;;9.62;100.00;102045.88;7737265;22;20207;-69
2024/02/28 10:16:07;;;;;;;14.87;12.00;;;;;;;10.56;100.00;102053.78;7735608;22;20211;-69
2024/02/28 10:19:28;;;;;;;17.57;13.53;;;;;;;12.31;100.00;102038.00;7735811;22;20203;-69
2024/02/28 10:22:53;;;;;;;17.83;14.87;;;;;;;15.23;100.00;102035.88;7733720;22;20219;-69
2024/02/28 10:26:13;;;;;;;14.83;10.70;;;;;;;13.16;95.76;102055.63;7736886;22;20211;-69
2024/02/28 10:29:34;;;;;;;15.30;12.57;;;;;;;12.81;98.62;102048.44;7746847;22;20240;-69
2024/02/28 10:32:57;;;;;;;20.08;13.68;;;;;;;12.35;100.00;102050.31;7728395;22;20230;-68
2024/02/28 10:36:18;;;;;;;14.43;11.88;;;;;;;11.83;99.41;102058.84;7732082;22;20215;-67
2024/02/28 10:39:39;;;;;;;14.70;12.18;;;;;;;13.55;100.00;102063.19;7742815;22;20580;-69
2024/02/28 10:43:01;;;;;;;14.65;13.07;;;;;;;10.89;100.00;102072.97;7731709;22;20457;-66
2024/02/28 10:46:23;;;;;;;17.03;14.00;;;;;;;9.49;100.00;102074.59;7728676;22;20271;-70
2024/02/28 10:49:45;;;;;;;16.93;13.53;;;;;;;9.00;100.00;102076.84;7739000;22;20320;-71
2024/02/28 10:53:14;;;;;;;17.00;14.33;;;;;;;9.76;100.00;102083.53;7736516;22;20284;-70
2024/02/28 10:56:35;;;;;;;14.47;12.73;;;;;;;10.06;100.00;102084.16;7737088;22;20218;-68
2024/02/28 10:59:57;;;;;;;15.30;12.40;;;;;;;10.89;100.00;102082.94;7738733;22;20211;-69
2024/02/28 11:03:19;;;;;;;14.33;12.83;;;;;;;13.07;100.00;102061.75;7737607;22;20211;-67
2024/02/28 11:06:51;;;;;;;17.27;13.43;;;;;;;10.24;100.00;102074.03;7733818;22;20298;-66
2024/02/28 11:10:13;;;;;;;17.07;14.80;;;;;;;10.08;100.00;102073.28;7733805;22;20549;-68
2024/02/28 11:13:34;;;;;;;16.27;12.43;;;;;;;10.28;100.00;102075.53;7742375;22;20215;-69
2024/02/28 11:17:01;;;;;;;14.67;11.97;;;;;;;9.73;100.00;102072.97;7724881;22;20223;-68
2024/02/28 11:20:22;;;;;;;12.30;10.97;;;;;;;8.48;100.00;102081.03;7729895;22;20210;-67
2024/02/28 11:23:47;;;;;;;22.03;13.60;;;;;;;8.17;100.00;102078.44;7737575;22;20305;-67
2024/02/28 11:27:13;;;;;;;14.00;11.13;;;;;;;8.39;100.00;102089.63;7731673;22;20211;-67
2024/02/28 11:30:34;;;;;;;16.27;11.97;;;;;;;8.13;100.00;102095.69;7728649;22;20435;-67
2024/02/28 11:33:55;;;;;;;13.13;11.30;;;;;;;7.71;100.00;102086.50;7736754;22;20588;-67
2024/02/28 11:37:16;;;;;;;14.80;12.57;;;;;;;8.09;100.00;102087.78;7731437;22;20211;-68
2024/02/28 11:40:38;;;;;;;18.37;13.33;;;;;;;7.93;100.00;102088.78;7732966;22;20215;-69
2024/02/28 11:44:01;;;;;;;15.20;12.30;;;;;;;8.46;100.00;102085.63;7735506;22;20207;-68
2024/02/28 11:47:21;;;;;;;18.70;14.23;;;;;;;8.49;100.00;102088.16;7725286;22;20216;-69
2024/02/28 11:50:42;;;;;;;21.30;14.60;;;;;;;8.51;100.00;102088.91;7725194;22;20215;-69
2024/02/28 11:54:03;;;;;;;19.47;14.17;;;;;;;8.43;100.00;102085.81;7736274;22;20215;-69
2024/02/28 11:57:26;;;;;;;19.07;13.93;;;;;;;8.82;100.00;102089.59;7736141;22;20215;-70
2024/02/28 12:00:48;;;;;;;15.87;13.50;;;;;;;8.29;100.00;102080.41;7702458;22;20218;-68
2024/02/28 12:04:10;;;;;;;18.23;15.33;;;;;;;8.01;100.00;102079.31;7736561;22;20211;-68
2024/02/28 12:07:31;;;;;;;23.50;15.20;;;;;;;8.05;100.00;102085.41;7733834;22;20260;-68
2024/02/28 12:10:52;;;;;;;16.93;14.83;;;;;;;7.88;100.00;102096.25;7730691;22;20260;-68
2024/02/28 12:14:14;;;;;;;19.37;16.20;;;;;;;7.47;100.00;102089.72;7743687;22;20257;-71
2024/02/28 12:17:36;;;;;;;20.93;16.53;;;;;;;7.68;100.00;102089.34;7728188;22;20215;-71
2024/02/28 12:20:57;;;;;;;22.60;15.37;;;;;;;7.94;100.00;102091.41;7738908;22;20207;-69
2024/02/28 12:24:18;;;;;;;19.43;16.10;;;;;;;7.93;100.00;102083.41;7741332;22;20629;-71
2024/02/28 12:27:39;;;;;;;17.67;13.97;;;;;;;7.80;100.00;102074.38;7741561;22;20219;-69
2024/02/28 12:31:01;;;;;;;17.63;13.67;;;;;;;8.07;100.00;102072.75;7736871;22;20689;-68
2024/02/28 12:34:22;;;;;;;21.23;14.90;;;;;;;7.51;100.00;102078.69;7738756;22;20211;-69
2024/02/28 12:37:43;;;;;;;16.63;14.83;;;;;;;7.62;100.00;102070.03;7732247;22;20219;-68
2024/02/28 12:41:04;;;;;;;17.43;15.47;;;;;;;7.71;100.00;102070.41;7734552;22;20506;-69
2024/02/28 12:44:25;;;;;;;18.17;13.70;;;;;;;7.90;100.00;102054.94;7743205;22;20289;-69
2024/02/28 12:47:47;;;;;;;22.00;14.27;;;;;;;7.85;100.00;102056.16;7732052;22;20223;-69
2024/02/28 12:51:11;;;;;;;16.33;14.53;;;;;;;7.68;100.00;102061.63;7735789;22;20203;-69
2024/02/28 12:54:32;;;;;;;19.67;16.27;;;;;;;7.58;100.00;102058.63;7738217;22;20215;-70
2024/02/28 12:57:55;;;;;;;14.83;11.80;;;;;;;7.65;100.00;102049.28;7724625;22;20329;-68
2024/02/28 13:01:16;;;;;;;15.20;12.87;;;;;;;7.66;100.00;102044.75;7726203;22;20210;-67
2024/02/28 13:04:39;;;;;;;13.87;12.30;;;;;;;7.84;100.00;102054.44;7734191;22;20547;-67
2024/02/28 13:08:00;;;;;;;15.57;12.40;;;;;;;7.84;100.00;102052.59;7733861;22;20215;-66
2024/02/28 13:11:21;;;;;;;16.93;12.50;;;;;;;7.72;100.00;102045.28;7735793;22;20226;-68
2024/02/28 13:14:42;;;;;;;14.03;12.57;;;;;;;7.90;100.00;102041.53;7743539;22;20214;-68
2024/02/28 13:18:07;;;;;;;16.10;14.20;;;;;;;8.13;100.00;102041.97;7732800;22;20214;-68
2024/02/28 13:21:31;;;;;;;17.93;13.03;;;;;;;7.77;100.00;102034.28;7732639;22;20565;-67
2024/02/28 13:24:52;;;;;;;15.33;13.37;;;;;;;8.04;100.00;102038.00;7739357;22;20219;-68
2024/02/28 13:28:14;;;;;;;18.73;13.97;;;;;;;8.12;100.00;102029.47;7739972;22;20687;-68
2024/02/28 13:31:35;;;;;;;16.33;12.80;;;;;;;7.81;100.00;102033.13;7732695;22;20215;-67
2024/02/28 13:34:55;;;;;;;20.43;14.63;;;;;;;7.64;100.00;102026.06;7735981;22;20554;-68
2024/02/28 13:38:19;;;;;;;16.83;12.47;;;;;;;7.79;100.00;102024.31;7739001;22;20214;-69
2024/02/28 13:41:40;;;;;;;13.63;11.70;;;;;;;7.95;100.00;102022.44;7733054;22;20625;-69
2024/02/28 13:45:01;;;;;;;15.33;13.73;;;;;;;7.91;100.00;102029.81;7738609;22;20206;-67
2024/02/28 13:48:24;;;;;;;15.90;13.07;;;;;;;7.82;100.00;102022.28;7731724;22;20271;-67
2024/02/28 13:51:45;;;;;;;14.03;9.57;;;;;;;7.90;100.00;102025.41;7729874;22;20562;-68
2024/02/28 13:55:09;;;;;;;15.20;12.10;;;;;;;7.84;100.00;102027.59;7727089;22;20241;-66
2024/02/28 13:58:30;;;;;;;13.07;10.93;;;;;;;7.85;100.00;102013.19;7740991;22;20223;-68
2024/02/28 14:01:50;;;;;;;14.37;9.93;;;;;;;7.79;100.00;102021.63;7730130;22;20670;-67
2024/02/28 14:05:12;;;;;;;16.37;11.60;;;;;;;7.65;100.00;102017.09;7731074;22;20210;-66
2024/02/28 14:08:33;;;;;;;14.97;12.90;;;;;;;7.59;100.00;102019.25;7738674;22;20600;-68
2024/02/28 14:11:55;;;;;;;14.53;12.20;;;;;;;7.64;100.00;102027.88;7736412;22;20214;-67
2024/02/28 14:15:16;;;;;;;13.70;11.73;;;;;;;7.71;100.00;102019.41;7735444;22;20215;-67
2024/02/28 14:18:37;;;;;;;16.43;10.77;;;;;;;7.68;100.00;102024.94;7737039;22;20215;-69
2024/02/28 14:21:58;;;;;;;13.80;11.03;;;;;;;7.76;100.00;102027.19;7731288;22;20871;-67
2024/02/28 14:25:20;;;;;;;14.43;11.43;;;;;;;8.01;100.00;102028.31;7735054;22;20226;-66
2024/02/28 14:28:42;;;;;;;13.90;11.50;;;;;;;7.95;100.00;102025.13;7736017;22;20219;-67
2024/02/28 14:32:03;;;;;;;13.87;11.23;;;;;;;7.87;100.00;102019.34;7724283;22;20210;-67
2024/02/28 14:35:24;;;;;;;13.97;11.10;;;;;;;7.81;100.00;102023.28;7733231;22;20773;-67
2024/02/28 14:38:45;;;;;;;12.40;10.13;;;;;;;7.89;100.00;102025.50;7735943;22;20959;-68
2024/02/28 14:42:08;;;;;;;12.80;9.93;;;;;;;7.88;100.00;102029.16;7732426;22;20266;-66
2024/02/28 14:45:31;;;;;;;14.60;9.63;;;;;;;7.90;100.00;102028.09;7719514;22;20285;-66
2024/02/28 14:48:52;;;;;;;9.40;8.10;;;;;;;7.71;100.00;102029.25;7737072;22;20215;-69
2024/02/28 14:52:14;;;;;;;9.50;8.43;;;;;;;7.64;100.00;102038.63;7736322;22;20619;-68
2024/02/28 14:55:35;;;;;;;10.67;7.73;;;;;;;7.68;100.00;102038.34;7735599;22;20215;-68
2024/02/28 14:58:56;;;;;;;13.97;10.50;;;;;;;7.69;100.00;102036.53;7740929;22;20837;-69
2024/02/28 15:02:19;;;;;;;10.77;9.60;;;;;;;7.81;100.00;102044.75;7727508;22;20207;-66
2024/02/28 15:05:40;;;;;;;10.40;8.13;;;;;;;7.73;100.00;102038.97;7730642;22;20298;-67
2024/02/28 15:09:03;;;;;;;11.10;9.30;;;;;;;7.60;100.00;102042.44;7740096;22;20253;-68
2024/02/28 15:12:24;;;;;;;22.13;10.80;;;;;;;7.64;100.00;102035.94;7738336;22;20218;-68
2024/02/28 15:15:45;;;;;;;13.83;10.07;;;;;;;7.57;100.00;102032.72;7735077;22;20215;-68